createdAt,value
2023-01-06T00:00:13.690Z,31.87
2023-01-06T00:03:15.784Z,31.13
2023-01-06T00:06:19.128Z,35.20
2023-01-06T00:09:21.189Z,31.10
2023-01-06T00:12:23.550Z,31.07
2023-01-06T00:15:25.744Z,33.03
2023-01-06T00:18:28.056Z,32.47
2023-01-06T00:21:31.436Z,31.10
2023-01-06T00:24:34.076Z,30.57
2023-01-06T00:27:36.632Z,33.80
2023-01-06T00:30:38.768Z,31.63
2023-01-06T00:33:41.732Z,30.23
2023-01-06T00:36:44.959Z,32.87
2023-01-06T00:39:47.068Z,31.17
2023-01-06T00:42:49.195Z,30.93
2023-01-06T00:45:51.702Z,31.33
2023-01-06T00:49:04.642Z,31.37
2023-01-06T00:52:07.679Z,29.57
2023-01-06T00:55:22.874Z,31.53
2023-01-06T00:58:30.661Z,30.90
2023-01-06T01:01:34.192Z,27.20
2023-01-06T01:04:36.476Z,29.97
2023-01-06T01:07:38.704Z,28.50
2023-01-06T01:10:40.759Z,27.83
2023-01-06T01:13:43.962Z,29.03
2023-01-06T01:16:46.530Z,30.07
2023-01-06T01:19:50.372Z,30.03
2023-01-06T01:22:52.430Z,27.17
2023-01-06T01:25:58.390Z,26.23
2023-01-06T01:29:01.435Z,26.50
2023-01-06T01:32:03.809Z,24.80
2023-01-06T01:35:06.370Z,21.93
2023-01-06T01:38:09.333Z,24.23
2023-01-06T01:41:17.174Z,25.10
2023-01-06T01:45:13.587Z,25.30
2023-01-06T01:51:33.665Z,26.83
2023-01-06T01:54:36.924Z,25.47
2023-01-06T01:58:05.780Z,24.93
2023-01-06T02:01:10.662Z,24.73
2023-01-06T02:07:15.432Z,26.37
2023-01-06T02:10:20.793Z,26.53
2023-01-06T02:13:23.317Z,27.70
2023-01-06T02:16:55.278Z,24.47
2023-01-06T02:20:37.529Z,24.73
2023-01-06T02:24:18.004Z,25.13
2023-01-06T02:27:34.890Z,23.47
2023-01-06T02:31:16.806Z,22.40
2023-01-06T02:34:54.185Z,24.37
2023-01-06T02:38:28.550Z,23.30
2023-01-06T02:41:47.320Z,24.23
2023-01-06T02:45:27.811Z,21.20
2023-01-06T02:49:09.603Z,24.13
2023-01-06T02:52:37.662Z,23.20
2023-01-06T02:55:55.034Z,24.47
2023-01-06T02:59:05.985Z,23.07
2023-01-06T03:02:11.614Z,21.80
2023-01-06T03:05:16.323Z,21.70
2023-01-06T03:08:30.613Z,23.08
2023-01-06T03:11:35.160Z,20.88
2023-01-06T03:14:43.207Z,20.65
2023-01-06T03:17:45.563Z,20.27
2023-01-06T03:20:51.129Z,19.57
2023-01-06T03:23:54.272Z,20.97
2023-01-06T03:26:57.247Z,19.20
2023-01-06T03:30:04.581Z,20.27
2023-01-06T03:33:33.313Z,21.10
2023-01-06T03:36:57.384Z,21.43
2023-01-06T03:40:28.062Z,20.07
2023-01-06T03:43:44.206Z,19.07
2023-01-06T03:46:55.043Z,21.43
2023-01-06T03:50:16.512Z,19.83
2023-01-06T03:53:30.542Z,20.87
2023-01-06T03:56:38.595Z,19.47
2023-01-06T03:59:53.264Z,20.00
2023-01-06T04:02:56.268Z,19.88
2023-01-06T04:05:58.431Z,19.67
2023-01-06T04:09:01.029Z,19.07
2023-01-06T04:12:21.443Z,20.07
2023-01-06T04:15:26.623Z,21.03
2023-01-06T04:18:28.875Z,20.57
2023-01-06T04:21:32.168Z,19.50
2023-01-06T04:24:34.296Z,19.37
2023-01-06T04:27:36.470Z,19.07
2023-01-06T04:30:38.488Z,19.17
2023-01-06T04:33:40.568Z,19.60
2023-01-06T04:36:42.724Z,19.70
2023-01-06T04:39:45.487Z,20.97
2023-01-06T04:43:05.592Z,19.70
2023-01-06T04:46:09.758Z,20.20
2023-01-06T04:49:13.181Z,19.73
2023-01-06T04:52:16.535Z,20.13
2023-01-06T04:55:18.723Z,18.67
2023-01-06T04:58:20.926Z,21.30
2023-01-06T05:01:24.339Z,20.27
2023-01-06T05:04:28.464Z,20.83
2023-01-06T05:07:32.196Z,21.33
2023-01-06T05:10:34.273Z,22.37
2023-01-06T05:13:36.899Z,22.33
2023-01-06T05:16:39.936Z,21.30
2023-01-06T05:19:43.153Z,22.70
2023-01-06T05:22:45.283Z,23.23
2023-01-06T05:25:51.608Z,24.60
2023-01-06T05:28:54.924Z,26.83
2023-01-06T05:31:57.164Z,26.33
2023-01-06T05:34:59.238Z,27.50
2023-01-06T05:38:01.371Z,29.37
2023-01-06T05:41:03.703Z,28.77
2023-01-06T05:44:05.869Z,26.53
2023-01-06T05:47:08.007Z,27.93
2023-01-06T05:50:10.404Z,28.00
2023-01-06T05:53:12.594Z,27.57
2023-01-06T05:56:17.787Z,26.57
2023-01-06T05:59:20.317Z,26.57
2023-01-06T06:02:22.455Z,25.63
2023-01-06T06:05:24.537Z,26.20
2023-01-06T06:08:26.727Z,26.20
2023-01-06T06:11:28.902Z,25.80
2023-01-06T06:14:31.131Z,25.60
2023-01-06T06:17:33.250Z,26.13
2023-01-06T06:20:35.435Z,23.53
2023-01-06T06:23:37.542Z,23.53
2023-01-06T06:26:39.678Z,25.20
2023-01-06T06:29:41.931Z,26.00
2023-01-06T06:32:44.116Z,24.37
2023-01-06T06:35:55.503Z,24.13
2023-01-06T06:38:58.967Z,22.80
2023-01-06T06:42:01.351Z,22.27
2023-01-06T06:45:03.690Z,21.23
2023-01-06T06:48:06.277Z,21.83
2023-01-06T06:51:11.550Z,22.90
2023-01-06T06:54:16.649Z,23.53
2023-01-06T06:57:18.771Z,21.80
2023-01-06T07:00:20.941Z,21.90
2023-01-06T07:03:25.360Z,22.87
2023-01-06T07:06:28.901Z,22.60
2023-01-06T07:09:31.786Z,23.10
2023-01-06T07:12:36.166Z,23.17
2023-01-06T07:15:38.305Z,25.90
2023-01-06T07:18:40.670Z,24.77
2023-01-06T07:21:42.915Z,27.10
2023-01-06T07:24:45.450Z,25.90
2023-01-06T07:27:49.637Z,27.60
2023-01-06T07:30:53.073Z,25.63
2023-01-06T07:33:55.261Z,25.90
2023-01-06T07:36:57.367Z,30.17
2023-01-06T07:39:59.559Z,26.80
2023-01-06T07:43:09.822Z,25.13
2023-01-06T07:46:12.776Z,27.67
2023-01-06T07:49:15.636Z,29.33
2023-01-06T07:52:17.745Z,28.90
2023-01-06T07:55:19.839Z,30.40
2023-01-06T07:58:24.244Z,30.60
2023-01-06T08:01:26.467Z,29.35
2023-01-06T08:04:28.656Z,30.63
2023-01-06T08:07:30.797Z,33.23
2023-01-06T08:10:33.023Z,31.20
2023-01-06T08:13:35.192Z,51.10
2023-01-06T08:16:39.315Z,30.57
2023-01-06T08:19:41.421Z,30.15
2023-01-06T08:22:43.506Z,27.90
2023-01-06T08:25:45.615Z,28.43
2023-01-06T08:28:47.860Z,27.13
2023-01-06T08:31:51.598Z,29.13
2023-01-06T08:34:56.944Z,28.67
2023-01-06T08:37:59.010Z,26.60
2023-01-06T08:41:02.132Z,26.30
2023-01-06T08:44:04.359Z,24.50
2023-01-06T08:47:06.699Z,25.43
2023-01-06T08:50:08.978Z,26.40
2023-01-06T08:53:12.274Z,23.50
2023-01-06T08:56:23.469Z,24.63
2023-01-06T08:59:25.981Z,22.80
2023-01-06T09:02:30.647Z,22.77
2023-01-06T09:05:32.942Z,22.20
2023-01-06T09:08:35.034Z,21.33
2023-01-06T09:11:37.497Z,21.93
2023-01-06T09:14:39.619Z,20.57
2023-01-06T09:17:42.182Z,19.60
2023-01-06T09:20:44.407Z,18.67
2023-01-06T09:23:47.400Z,18.93
2023-01-06T09:26:49.534Z,19.20
2023-01-06T09:29:51.690Z,18.23
2023-01-06T09:32:54.238Z,21.50
2023-01-06T09:35:56.331Z,22.43
2023-01-06T09:38:58.550Z,22.43
2023-01-06T09:42:34.400Z,22.33
2023-01-06T09:45:45.640Z,21.93
2023-01-06T09:49:05.027Z,20.50
2023-01-06T09:52:38.077Z,17.93
2023-01-06T09:55:48.172Z,17.30
2023-01-06T09:59:05.975Z,20.30
2023-01-06T10:02:34.555Z,17.13
2023-01-06T10:05:52.662Z,16.47
2023-01-06T10:09:26.301Z,16.53
2023-01-06T10:12:48.077Z,15.17
2023-01-06T10:16:36.794Z,15.43
2023-01-06T10:19:55.580Z,15.83
2023-01-06T10:23:24.981Z,13.45
2023-01-06T10:26:32.634Z,14.68
2023-01-06T10:29:37.770Z,16.52
2023-01-06T10:32:42.719Z,14.52
2023-01-06T10:35:44.968Z,16.13
2023-01-06T10:38:52.236Z,14.90
2023-01-06T10:42:42.466Z,16.90
2023-01-06T10:45:48.361Z,11.98
2023-01-06T10:48:50.616Z,14.52
2023-01-06T10:51:57.549Z,14.15
2023-01-06T10:55:04.929Z,16.23
2023-01-06T10:58:20.700Z,14.32
2023-01-06T11:01:29.072Z,11.82
2023-01-06T11:04:31.226Z,13.68
2023-01-06T11:07:34.445Z,12.73
2023-01-06T11:10:37.563Z,14.03
2023-01-06T11:13:41.587Z,14.13
2023-01-06T11:16:52.924Z,12.63
2023-01-06T11:20:24.316Z,12.73
2023-01-06T11:23:29.170Z,12.93
2023-01-06T11:26:37.404Z,13.05
2023-01-06T11:29:39.447Z,14.30
2023-01-06T11:32:42.882Z,13.57
2023-01-06T11:35:45.216Z,11.70
2023-01-06T11:38:51.180Z,13.70
2023-01-06T11:41:55.703Z,13.90
2023-01-06T11:44:58.945Z,14.13
2023-01-06T11:48:02.864Z,11.93
2023-01-06T11:51:09.087Z,10.38
2023-01-06T11:54:34.850Z,10.25
2023-01-06T11:57:47.310Z,11.57
2023-01-06T12:00:57.079Z,9.38
2023-01-06T12:04:10.800Z,10.65
2023-01-06T12:07:41.020Z,12.57
2023-01-06T12:10:45.581Z,12.02
2023-01-06T12:14:08.465Z,12.05
2023-01-06T12:17:30.061Z,11.80
2023-01-06T12:20:38.715Z,12.68
2023-01-06T12:23:44.205Z,12.27
2023-01-06T12:26:47.312Z,11.43
2023-01-06T12:29:52.607Z,12.15
2023-01-06T12:32:59.879Z,11.63
2023-01-06T12:36:16.050Z,12.60
2023-01-06T12:39:28.140Z,12.18
2023-01-06T12:42:58.069Z,12.95
2023-01-06T12:46:10.306Z,14.15
2023-01-06T12:49:19.343Z,11.57
2023-01-06T12:52:59.881Z,14.23
2023-01-06T12:56:31.132Z,15.43
2023-01-06T13:00:01.122Z,14.90
2023-01-06T13:03:30.048Z,14.80
2023-01-06T13:06:50.146Z,14.37
2023-01-06T13:09:55.008Z,14.00
2023-01-06T13:13:29.000Z,14.73
2023-01-06T13:16:58.897Z,15.53
2023-01-06T13:20:03.444Z,17.13
2023-01-06T13:23:32.784Z,14.63
2023-01-06T13:26:40.991Z,15.93
2023-01-06T13:30:12.190Z,15.83
2023-01-06T13:33:50.106Z,16.73
2023-01-06T13:37:07.028Z,15.87
2023-01-06T13:40:14.736Z,17.93
2023-01-06T13:43:22.286Z,18.23
2023-01-06T13:46:26.701Z,20.40
2023-01-06T13:49:29.450Z,21.35
2023-01-06T13:52:32.341Z,21.37
2023-01-06T13:55:39.197Z,19.40
2023-01-06T13:58:46.569Z,18.70
2023-01-06T14:01:50.637Z,18.00
2023-01-06T14:04:53.566Z,15.80
2023-01-06T14:08:03.623Z,18.73
2023-01-06T14:11:33.916Z,15.90
2023-01-06T14:14:39.265Z,14.70
2023-01-06T14:17:43.324Z,16.93
2023-01-06T14:20:47.932Z,17.97
2023-01-06T14:24:31.485Z,13.33
2023-01-06T14:27:46.096Z,16.43
2023-01-06T14:30:52.551Z,15.85
2023-01-06T14:34:02.736Z,14.87
2023-01-06T14:37:10.825Z,17.20
2023-01-06T14:40:40.820Z,14.80
2023-01-06T14:44:03.746Z,24.30
2023-01-06T14:47:13.369Z,17.70
2023-01-06T14:50:24.855Z,16.50
2023-01-06T14:53:35.804Z,13.30
2023-01-06T14:56:37.839Z,13.30
2023-01-06T14:59:40.229Z,10.33
2023-01-06T15:03:05.970Z,9.73
2023-01-06T15:06:11.588Z,8.87
2023-01-06T15:09:22.611Z,9.93
2023-01-06T15:12:33.932Z,9.83
2023-01-06T15:15:38.305Z,10.67
2023-01-06T15:18:44.056Z,9.48
2023-01-06T15:21:47.699Z,10.60
2023-01-06T15:24:50.139Z,9.93
2023-01-06T15:27:57.186Z,10.13
2023-01-06T15:31:01.333Z,10.47
2023-01-06T15:34:20.746Z,12.77
2023-01-06T15:37:26.286Z,11.87
2023-01-06T15:40:29.185Z,12.97
2023-01-06T15:43:51.514Z,11.67
2023-01-06T15:47:15.469Z,10.33
2023-01-06T15:50:23.624Z,10.80
2023-01-06T15:53:32.583Z,9.97
2023-01-06T15:56:35.025Z,10.43
2023-01-06T15:59:38.557Z,8.53
2023-01-06T16:02:40.785Z,6.93
2023-01-06T16:05:49.747Z,7.87
2023-01-06T16:08:52.742Z,6.97
2023-01-06T16:12:04.131Z,7.37
2023-01-06T16:15:34.827Z,7.30
2023-01-06T16:18:38.270Z,7.63
2023-01-06T16:21:43.005Z,8.97
2023-01-06T16:24:51.578Z,7.55
2023-01-06T16:27:57.631Z,7.70
2023-01-06T16:31:10.951Z,6.80
2023-01-06T16:34:21.872Z,6.77
2023-01-06T16:37:23.924Z,10.37
2023-01-06T16:40:29.074Z,11.27
2023-01-06T16:43:31.370Z,8.50
2023-01-06T16:46:33.689Z,6.97
2023-01-06T16:49:35.801Z,9.13
2023-01-06T16:52:38.165Z,7.73
2023-01-06T16:55:41.604Z,7.10
2023-01-06T16:58:44.131Z,7.43
2023-01-06T17:01:48.196Z,6.27
2023-01-06T17:04:50.525Z,7.57
2023-01-06T17:07:57.253Z,6.97
2023-01-06T17:11:10.651Z,8.27
2023-01-06T17:14:17.908Z,7.57
2023-01-06T17:17:22.706Z,8.93
2023-01-06T17:20:25.586Z,7.73
2023-01-06T17:23:28.103Z,9.63
2023-01-06T17:26:30.570Z,7.73
2023-01-06T17:29:38.026Z,8.47
2023-01-06T17:32:43.541Z,9.37
2023-01-06T17:35:50.907Z,10.03
2023-01-06T17:38:53.279Z,8.67
2023-01-06T17:42:07.905Z,8.87
2023-01-06T17:45:23.097Z,7.60
2023-01-06T17:48:26.781Z,7.93
2023-01-06T17:51:28.992Z,8.20
2023-01-06T17:54:50.518Z,7.67
2023-01-06T17:57:56.778Z,8.73
2023-01-06T18:01:01.543Z,10.40
2023-01-06T18:04:09.210Z,11.77
2023-01-06T18:07:14.557Z,9.53
2023-01-06T18:10:19.021Z,10.63
2023-01-06T18:13:32.748Z,11.35
2023-01-06T18:16:35.592Z,10.10
2023-01-06T18:19:38.564Z,11.37
2023-01-06T18:22:40.791Z,10.20
2023-01-06T18:25:42.954Z,12.30
2023-01-06T18:28:45.178Z,11.43
2023-01-06T18:31:49.887Z,12.77
2023-01-06T18:38:03.451Z,12.57
2023-01-06T18:41:11.560Z,14.13
2023-01-06T18:44:19.798Z,14.20
2023-01-06T18:47:23.694Z,14.93
2023-01-06T18:50:38.486Z,13.63
2023-01-06T18:53:44.652Z,14.80
2023-01-06T18:56:46.689Z,15.00
2023-01-06T18:59:48.774Z,14.43
2023-01-06T19:02:51.940Z,15.00
2023-01-06T19:05:59.269Z,15.33
2023-01-06T19:09:03.011Z,16.10
2023-01-06T19:12:17.146Z,14.47
2023-01-06T19:15:24.243Z,15.73
2023-01-06T19:18:32.521Z,15.63
2023-01-06T19:21:35.938Z,14.30
2023-01-06T19:24:46.488Z,15.63
2023-01-06T19:27:59.380Z,15.43
2023-01-06T19:31:03.312Z,14.50
2023-01-06T19:34:14.705Z,16.08
2023-01-06T19:37:18.429Z,14.33
2023-01-06T19:40:27.029Z,14.93
2023-01-06T19:43:36.372Z,13.97
2023-01-06T19:46:46.658Z,13.63
2023-01-06T19:49:53.289Z,16.73
2023-01-06T19:53:00.232Z,14.33
2023-01-06T19:56:19.775Z,12.80
2023-01-06T19:59:32.954Z,13.07
2023-01-06T20:02:45.331Z,14.33
2023-01-06T20:05:47.657Z,14.83
2023-01-06T20:08:53.292Z,14.37
2023-01-06T20:11:55.591Z,14.10
2023-01-06T20:14:57.989Z,13.10
2023-01-06T20:18:00.160Z,13.47
2023-01-06T20:21:03.101Z,13.53
2023-01-06T20:24:05.882Z,13.33
2023-01-06T20:27:07.993Z,13.60
2023-01-06T20:30:10.916Z,14.47
2023-01-06T20:33:13.131Z,15.07
2023-01-06T20:36:17.382Z,15.10
2023-01-06T20:39:19.458Z,14.82
2023-01-06T20:42:21.597Z,13.70
2023-01-06T20:45:23.732Z,15.23
2023-01-06T20:48:25.996Z,14.10
2023-01-06T20:51:29.484Z,13.07
2023-01-06T20:54:31.876Z,14.53
2023-01-06T20:57:34.031Z,15.43
2023-01-06T21:00:36.628Z,14.80
2023-01-06T21:03:38.830Z,15.93
2023-01-06T21:06:41.027Z,15.67
2023-01-06T21:09:43.237Z,14.60
2023-01-06T21:12:45.377Z,14.77
2023-01-06T21:15:47.423Z,14.97
2023-01-06T21:18:49.820Z,15.87
2023-01-06T21:21:51.980Z,16.20
2023-01-06T21:24:54.090Z,14.10
2023-01-06T21:27:56.193Z,14.77
2023-01-06T21:30:59.796Z,12.43
2023-01-06T21:34:01.892Z,12.23
2023-01-06T21:37:04.223Z,9.97
2023-01-06T21:40:09.598Z,9.40
2023-01-06T21:43:12.046Z,8.10
2023-01-06T21:46:14.273Z,8.03
2023-01-06T21:49:16.440Z,8.40
2023-01-06T21:52:18.595Z,8.37
2023-01-06T21:55:21.062Z,7.50
2023-01-06T21:58:23.447Z,6.73
2023-01-06T22:01:26.054Z,8.37
2023-01-06T22:04:28.439Z,9.47
2023-01-06T22:07:31.095Z,10.10
2023-01-06T22:10:34.332Z,8.77
2023-01-06T22:13:38.803Z,9.93
2023-01-06T22:16:41.729Z,9.52
2023-01-06T22:19:46.188Z,8.47
2023-01-06T22:22:48.596Z,11.00
2023-01-06T22:25:51.597Z,9.13
2023-01-06T22:28:53.783Z,9.07
2023-01-06T22:32:05.201Z,7.70
2023-01-06T22:35:09.244Z,8.70
2023-01-06T22:38:11.304Z,8.27
2023-01-06T22:41:13.410Z,8.90
2023-01-06T22:44:15.634Z,9.30
2023-01-06T22:47:18.954Z,8.27
2023-01-06T22:50:21.394Z,9.60
2023-01-06T22:53:23.474Z,9.07
2023-01-06T22:56:25.646Z,9.90
2023-01-06T22:59:27.867Z,8.87
2023-01-06T23:02:30.161Z,10.13
2023-01-06T23:05:32.367Z,8.53
2023-01-06T23:08:38.869Z,8.30
2023-01-06T23:11:43.998Z,9.67
2023-01-06T23:14:49.393Z,9.23
2023-01-06T23:17:51.469Z,8.27
2023-01-06T23:21:02.036Z,8.60
2023-01-06T23:24:04.506Z,8.00
2023-01-06T23:27:06.933Z,9.43
2023-01-06T23:30:09.836Z,10.57
2023-01-06T23:33:20.946Z,8.47
2023-01-06T23:36:26.193Z,9.17
2023-01-06T23:39:28.573Z,11.50
2023-01-06T23:42:40.495Z,8.90
2023-01-06T23:45:50.131Z,9.53
2023-01-06T23:48:53.553Z,7.77
2023-01-06T23:51:55.894Z,7.60
2023-01-06T23:54:57.982Z,7.23
2023-01-06T23:58:00.176Z,8.43
